East Keating, Pennsylvania
Current Conditions -  °F | °C
As of 9:54 AM on Sunday 23 Nov 2014 (Local Time) from KFIG Reporting Station
Overcast Overcast  
Wind Chill: 42°   Ceiling: 3800
Heat Index: 42°   Visibility: 10mi
Dew Point: 37°   Wind: 3mph
Humidity: 82%   Direction: 30°NNE
Pressure: 30.11"   Gusts: NA
Location:  41.3342°N, 77.9676°W
Report Text: KFIG 231454Z AUTO 03003KT 10SM BKN038 OVC090 06/03 A3011 RMK AO2 SLP208 T00560028 55003
Loading
Personal Weather Stations






























Interactive Weather Map New forecast layout! Learn more

10-Day Weather Forecast

Advertisements
Track Severe Weather on mobile